Time;durP1;ratioP1;P1;durP2;ratioP2;P2;SDS_P1;SDS_P2;PMS_P1;PMS_P2;Temp;Humidity;BMP_temperature;BMP_pressure;BME280_temperature;BME280_humidity;BME280_pressure;Samples;Min_cycle;Max_cycle;Signal;HPM_P1;HPM_P2
2022/04/05 00:02:23;;;;;;;12.07;2.90;;;9.40;99.90;;;;;;5015790;28;20049;-72
2022/04/05 00:04:48;;;;;;;10.18;3.67;;;9.40;99.90;;;;;;5014986;28;20457;-72
2022/04/05 00:07:14;;;;;;;6.45;2.05;;;9.40;99.90;;;;;;5014724;28;20053;-69
2022/04/05 00:09:40;;;;;;;7.53;2.65;;;9.40;99.90;;;;;;5014901;28;20030;-69
2022/04/05 00:12:06;;;;;;;5.57;2.00;;;9.40;99.90;;;;;;5015409;28;20030;-71
2022/04/05 00:14:31;;;;;;;6.43;2.10;;;9.40;99.90;;;;;;5015050;28;20041;-70
2022/04/05 00:16:57;;;;;;;9.07;2.03;;;9.40;99.90;;;;;;5014517;28;20050;-70
2022/04/05 00:19:23;;;;;;;7.10;1.67;;;9.40;99.90;;;;;;5014969;28;20030;-72
2022/04/05 00:21:49;;;;;;;7.05;1.70;;;9.40;99.90;;;;;;5014873;28;20041;-72
2022/04/05 00:24:15;;;;;;;7.40;1.70;;;9.40;99.90;;;;;;5015400;28;20022;-72
2022/04/05 00:26:41;;;;;;;6.03;1.52;;;9.50;99.90;;;;;;5014482;28;20081;-72
2022/04/05 00:29:07;;;;;;;7.55;1.50;;;9.50;99.90;;;;;;5014373;28;20089;-69
2022/04/05 00:31:33;;;;;;;7.20;2.28;;;9.50;99.90;;;;;;5015067;28;20063;-73
2022/04/05 00:33:58;;;;;;;8.48;2.03;;;9.50;99.90;;;;;;5014532;28;20486;-72
2022/04/05 00:36:24;;;;;;;5.18;2.33;;;9.50;99.90;;;;;;5014199;28;20355;-72
2022/04/05 00:38:49;;;;;;;9.23;2.58;;;9.50;99.90;;;;;;5014618;28;20100;-71
2022/04/05 00:41:15;;;;;;;7.05;2.25;;;9.50;99.90;;;;;;5014702;28;20030;-71
2022/04/05 00:43:41;;;;;;;9.27;2.25;;;9.50;99.90;;;;;;5013874;28;20054;-71
2022/04/05 00:46:07;;;;;;;8.88;2.20;;;9.50;99.90;;;;;;5014362;28;20108;-72
2022/04/05 00:48:50;;;;;;;6.78;1.85;;;9.60;99.90;;;;;;5014620;28;20022;-71
2022/04/05 00:51:17;;;;;;;8.57;1.88;;;9.60;99.90;;;;;;5014490;28;20120;-69
2022/04/05 00:53:48;;;;;;;7.10;1.90;;;9.60;99.90;;;;;;5014365;28;20121;-69
2022/04/05 00:56:15;;;;;;;5.47;2.03;;;9.60;99.90;;;;;;5014473;28;20046;-69
2022/04/05 00:58:45;;;;;;;11.57;1.90;;;9.60;99.90;;;;;;5013283;28;20421;-70
2022/04/05 01:01:15;;;;;;;7.20;1.92;;;9.60;99.90;;;;;;5014857;28;20041;-71
2022/04/05 01:03:43;;;;;;;6.93;2.03;;;9.60;99.90;;;;;;5014047;28;20152;-72
2022/04/05 01:06:09;;;;;;;8.68;1.80;;;9.60;99.90;;;;;;5014321;28;20533;-71
2022/04/05 01:08:36;;;;;;;9.88;2.80;;;9.60;99.90;;;;;;5014319;28;20030;-70
2022/04/05 01:11:02;;;;;;;7.75;2.70;;;9.60;99.90;;;;;;5014083;28;20526;-71
2022/04/05 01:13:31;;;;;;;13.48;4.00;;;9.60;99.90;;;;;;5013568;28;20109;-72
2022/04/05 01:15:57;;;;;;;7.22;2.95;;;9.60;99.90;;;;;;5014304;28;20080;-72
2022/04/05 01:18:22;;;;;;;10.32;3.53;;;9.60;99.90;;;;;;5013774;28;20045;-72
2022/04/05 01:20:51;;;;;;;17.60;4.75;;;9.60;99.90;;;;;;5014045;28;20437;-70
2022/04/05 01:23:21;;;;;;;9.18;3.00;;;9.60;99.90;;;;;;5014201;28;20029;-71
2022/04/05 01:25:47;;;;;;;9.73;3.03;;;9.60;99.90;;;;;;5013701;28;20103;-68
2022/04/05 01:28:13;;;;;;;6.07;2.28;;;9.60;99.90;;;;;;5013686;28;20352;-70
2022/04/05 01:30:39;;;;;;;16.90;4.22;;;9.60;99.90;;;;;;5013574;28;20036;-69
2022/04/05 01:33:04;;;;;;;12.18;2.90;;;9.60;99.90;;;;;;5013622;28;20113;-68
2022/04/05 01:35:30;;;;;;;8.20;2.22;;;9.60;99.90;;;;;;5013776;28;20485;-69
2022/04/05 01:37:57;;;;;;;5.53;2.15;;;9.60;99.90;;;;;;5013461;28;20076;-70
2022/04/05 01:40:24;;;;;;;10.10;3.13;;;9.50;99.90;;;;;;5013147;28;20029;-69
2022/04/05 01:42:50;;;;;;;11.00;3.13;;;9.50;99.90;;;;;;5013698;28;20458;-73
2022/04/05 01:45:15;;;;;;;10.60;2.80;;;9.50;99.90;;;;;;5013596;28;20037;-68
2022/04/05 01:47:41;;;;;;;11.77;3.30;;;9.50;99.90;;;;;;5013272;28;20026;-69
2022/04/05 01:50:07;;;;;;;10.63;3.45;;;9.50;99.90;;;;;;5013629;28;20045;-72
2022/04/05 01:52:33;;;;;;;9.57;3.63;;;9.50;99.90;;;;;;5013239;28;20026;-70
2022/04/05 01:54:58;;;;;;;12.48;3.78;;;9.50;99.90;;;;;;5008714;28;20475;-69
2022/04/05 01:57:24;;;;;;;15.48;3.35;;;9.40;99.90;;;;;;5010913;28;20045;-73
2022/04/05 01:59:50;;;;;;;8.68;3.83;;;9.50;99.90;;;;;;5012966;28;20040;-69
2022/04/05 02:02:16;;;;;;;10.75;3.50;;;9.50;99.90;;;;;;5012253;28;20026;-72
2022/04/05 02:04:41;;;;;;;11.60;3.70;;;9.50;99.90;;;;;;5013183;28;20030;-72
2022/04/05 02:07:15;;;;;;;12.27;3.97;;;9.50;99.90;;;;;;5013599;28;20122;-71
2022/04/05 02:09:42;;;;;;;12.23;3.70;;;9.40;99.90;;;;;;5012118;28;20037;-69
2022/04/05 02:12:09;;;;;;;11.68;3.88;;;9.40;99.90;;;;;;5011882;28;20448;-71
2022/04/05 02:14:35;;;;;;;9.85;3.05;;;9.40;99.90;;;;;;5013086;28;20096;-69
2022/04/05 02:17:05;;;;;;;12.32;3.35;;;9.40;99.90;;;;;;5013288;28;20038;-70
2022/04/05 02:19:31;;;;;;;13.55;3.42;;;9.40;99.90;;;;;;5011583;28;20057;-73
2022/04/05 02:21:57;;;;;;;12.65;3.08;;;9.40;99.90;;;;;;5013633;28;20474;-70
2022/04/05 02:24:22;;;;;;;12.25;3.50;;;9.30;99.90;;;;;;5012538;28;20034;-69
2022/04/05 02:26:49;;;;;;;11.02;3.00;;;9.30;99.90;;;;;;5012863;28;20058;-72
2022/04/05 02:29:15;;;;;;;12.05;3.05;;;9.30;99.90;;;;;;5012874;28;20026;-72
2022/04/05 02:31:41;;;;;;;10.05;3.15;;;9.30;99.90;;;;;;5012611;28;20049;-71
2022/04/05 02:34:07;;;;;;;14.25;4.03;;;9.30;99.90;;;;;;5013163;28;20030;-72
2022/04/05 02:36:32;;;;;;;14.40;4.00;;;9.30;99.90;;;;;;5013121;28;20026;-69
2022/04/05 02:38:58;;;;;;;13.30;3.72;;;9.30;99.90;;;;;;5017011;28;20048;-72
2022/04/05 02:41:24;;;;;;;12.43;3.42;;;9.30;99.90;;;;;;5012444;28;20509;-70
2022/04/05 02:43:49;;;;;;;11.77;4.18;;;9.30;99.90;;;;;;5027691;28;20030;-72
2022/04/05 02:46:15;;;;;;;10.65;3.30;;;9.30;99.90;;;;;;5012895;28;20458;-71
2022/04/05 02:48:43;;;;;;;9.45;3.40;;;9.30;99.90;;;;;;5012173;28;20422;-72
2022/04/05 02:51:13;;;;;;;12.48;3.55;;;9.30;99.90;;;;;;5012493;28;20026;-71
2022/04/05 02:53:40;;;;;;;11.23;3.53;;;9.30;99.90;;;;;;5012085;28;20037;-71
2022/04/05 02:56:07;;;;;;;15.10;3.92;;;9.30;99.90;;;;;;5012745;28;20034;-72
2022/04/05 02:58:34;;;;;;;12.25;3.45;;;9.30;99.90;;;;;;5012050;28;20120;-71
2022/04/05 03:00:59;;;;;;;13.52;3.63;;;9.30;99.90;;;;;;5012834;28;20026;-70
2022/04/05 03:03:25;;;;;;;10.77;3.30;;;9.30;99.90;;;;;;5012257;28;20099;-70
2022/04/05 03:05:50;;;;;;;10.13;3.38;;;9.20;99.90;;;;;;5012209;28;20034;-70
2022/04/05 03:08:16;;;;;;;10.27;2.90;;;9.20;99.90;;;;;;5011682;28;20105;-71
2022/04/05 03:10:42;;;;;;;8.98;3.50;;;9.20;99.90;;;;;;5012502;28;20034;-68
2022/04/05 03:20:04;;;;;;;13.50;3.85;;;9.20;99.90;;;;;;5012739;28;20037;-69
2022/04/05 03:22:30;;;;;;;11.32;2.92;;;9.20;99.90;;;;;;5015857;28;20470;-71
2022/04/05 03:24:56;;;;;;;14.10;3.45;;;9.10;99.90;;;;;;5015630;28;20072;-69
2022/04/05 03:27:21;;;;;;;12.35;3.28;;;9.10;99.90;;;;;;5014926;28;20149;-72
2022/04/05 03:29:47;;;;;;;9.57;3.17;;;9.10;99.90;;;;;;5014882;28;20037;-73
2022/04/05 03:32:13;;;;;;;16.35;3.60;;;9.00;99.90;;;;;;5015886;28;20037;-71
2022/04/05 03:34:38;;;;;;;9.48;3.22;;;9.10;99.90;;;;;;5015994;28;20037;-70
2022/04/05 03:37:05;;;;;;;11.20;3.13;;;9.10;99.90;;;;;;5016173;28;20046;-69
2022/04/05 03:39:30;;;;;;;8.52;3.20;;;9.10;99.90;;;;;;5015868;28;20507;-73
2022/04/05 03:41:57;;;;;;;10.38;3.80;;;9.10;99.90;;;;;;5015732;28;20026;-71
2022/04/05 03:44:23;;;;;;;12.60;3.72;;;9.10;99.90;;;;;;5015592;28;20032;-71
2022/04/05 03:46:48;;;;;;;12.65;3.50;;;9.10;99.90;;;;;;5016340;28;20050;-71
2022/04/05 03:49:14;;;;;;;8.32;2.80;;;9.20;99.90;;;;;;5014882;28;20022;-71
2022/04/05 03:51:40;;;;;;;8.25;2.90;;;9.20;99.90;;;;;;5015482;28;20049;-73
2022/04/05 03:54:05;;;;;;;11.90;2.85;;;9.20;99.90;;;;;;5014851;28;20106;-70
2022/04/05 03:56:31;;;;;;;9.65;2.60;;;9.20;99.90;;;;;;5015320;28;20466;-72
2022/04/05 03:58:56;;;;;;;6.68;2.33;;;9.20;99.90;;;;;;5015071;28;20328;-68
2022/04/05 04:01:22;;;;;;;10.38;2.63;;;9.20;99.90;;;;;;5015718;28;20444;-72
2022/04/05 04:03:47;;;;;;;10.82;2.50;;;9.20;99.90;;;;;;5015999;28;20038;-70
2022/04/05 04:06:13;;;;;;;11.63;4.80;;;9.20;99.90;;;;;;5015300;28;20077;-72
2022/04/05 04:08:39;;;;;;;8.27;2.10;;;9.30;99.90;;;;;;5014960;28;20390;-71
2022/04/05 04:11:04;;;;;;;9.88;2.92;;;9.30;99.90;;;;;;5014048;28;20452;-69
2022/04/05 04:13:30;;;;;;;7.93;2.40;;;9.30;99.90;;;;;;5015229;28;20040;-71
2022/04/05 04:15:56;;;;;;;8.95;2.92;;;9.30;99.90;;;;;;5015046;28;20370;-71
2022/04/05 04:18:22;;;;;;;11.68;3.67;;;9.30;99.90;;;;;;5015571;28;20505;-69
2022/04/05 04:20:48;;;;;;;12.65;3.90;;;9.30;99.90;;;;;;5015171;28;20109;-71
2022/04/05 04:23:14;;;;;;;17.35;5.30;;;9.30;99.90;;;;;;5014820;28;20026;-69
2022/04/05 04:25:40;;;;;;;17.65;5.65;;;9.40;99.90;;;;;;5014693;28;20168;-70
2022/04/05 04:28:07;;;;;;;20.23;6.88;;;9.30;99.90;;;;;;5013933;28;20072;-73
2022/04/05 04:30:33;;;;;;;23.88;8.45;;;9.40;99.90;;;;;;5015220;28;20407;-71
2022/04/05 04:32:59;;;;;;;27.05;10.20;;;9.40;99.90;;;;;;5012802;28;20394;-70
2022/04/05 04:35:25;;;;;;;25.10;9.63;;;9.40;99.90;;;;;;5014589;28;20378;-71
2022/04/05 04:37:51;;;;;;;33.00;11.70;;;9.40;99.90;;;;;;5015009;28;20065;-70
2022/04/05 04:40:16;;;;;;;32.65;11.35;;;9.50;99.90;;;;;;5014558;28;20065;-72
2022/04/05 04:42:42;;;;;;;31.65;13.30;;;9.50;99.90;;;;;;5014515;28;20366;-70
2022/04/05 04:45:08;;;;;;;33.90;12.90;;;9.50;99.90;;;;;;5014960;28;20034;-73
2022/04/05 04:47:34;;;;;;;36.95;14.98;;;9.50;99.90;;;;;;5014659;28;20041;-69
2022/04/05 04:50:00;;;;;;;37.75;14.40;;;9.60;99.90;;;;;;5014090;28;20045;-70
2022/04/05 04:52:26;;;;;;;35.58;14.18;;;9.60;99.90;;;;;;5014123;28;20030;-73
2022/04/05 04:54:51;;;;;;;40.97;15.65;;;9.70;99.90;;;;;;5014435;28;20417;-71
2022/04/05 04:57:18;;;;;;;34.15;15.40;;;9.70;99.90;;;;;;5014479;28;20065;-69
2022/04/05 04:59:43;;;;;;;46.47;18.88;;;9.70;99.90;;;;;;5012810;28;20030;-72
2022/04/05 05:02:09;;;;;;;39.05;16.98;;;9.80;99.90;;;;;;5014741;28;20061;-70
2022/04/05 05:04:35;;;;;;;42.08;18.63;;;9.80;99.90;;;;;;5014662;28;20030;-73
2022/04/05 05:07:01;;;;;;;38.10;16.30;;;9.80;99.90;;;;;;5014401;28;20100;-73
2022/04/05 05:09:26;;;;;;;41.65;16.90;;;9.80;99.90;;;;;;5014271;28;20033;-70
2022/04/05 05:11:52;;;;;;;41.63;15.85;;;9.90;99.90;;;;;;5013885;28;20030;-70
2022/04/05 05:14:17;;;;;;;38.38;14.40;;;9.90;99.90;;;;;;5014284;28;20251;-71
2022/04/05 05:16:43;;;;;;;36.50;13.38;;;9.90;99.90;;;;;;5012978;28;20108;-70
2022/04/05 05:19:08;;;;;;;33.70;12.63;;;9.90;99.90;;;;;;5013765;28;20054;-72
2022/04/05 05:21:34;;;;;;;38.17;14.00;;;9.90;99.90;;;;;;5012857;28;20850;-70
2022/04/05 05:24:00;;;;;;;33.80;11.07;;;10.00;99.90;;;;;;5014359;28;20038;-71
2022/04/05 05:26:25;;;;;;;29.15;11.20;;;10.00;99.90;;;;;;5012584;28;20482;-70
2022/04/05 05:28:51;;;;;;;30.20;11.93;;;10.00;99.90;;;;;;5014081;28;20478;-72
2022/04/05 05:31:16;;;;;;;30.40;9.95;;;10.00;99.90;;;;;;5013838;28;20035;-71
2022/04/05 05:33:42;;;;;;;32.20;9.95;;;10.00;99.90;;;;;;5013635;28;20462;-70
2022/04/05 05:36:07;;;;;;;28.75;9.60;;;10.00;99.90;;;;;;5013819;28;20422;-69
2022/04/05 05:38:33;;;;;;;26.35;7.88;;;10.00;99.90;;;;;;5014096;28;20401;-71
2022/04/05 05:40:59;;;;;;;26.52;7.22;;;10.00;99.90;;;;;;5010139;28;20040;-70
2022/04/05 05:43:25;;;;;;;29.95;7.75;;;10.00;99.90;;;;;;5013802;28;20109;-72
2022/04/05 05:45:51;;;;;;;28.30;7.32;;;10.10;99.90;;;;;;5013456;28;20184;-69
2022/04/05 05:48:17;;;;;;;21.85;7.35;;;10.10;99.90;;;;;;5012008;28;20116;-69
2022/04/05 05:50:43;;;;;;;27.38;7.97;;;10.10;99.90;;;;;;5012929;28;20026;-72
2022/04/05 05:53:09;;;;;;;22.60;8.77;;;10.20;99.90;;;;;;5013602;28;20033;-71
2022/04/05 05:55:35;;;;;;;24.52;7.60;;;10.20;99.90;;;;;;5011325;28;20040;-70
2022/04/05 05:58:03;;;;;;;20.13;6.47;;;10.20;99.90;;;;;;5013593;28;20038;-68
2022/04/05 06:00:29;;;;;;;29.60;8.57;;;10.20;99.90;;;;;;5014251;28;20505;-69
2022/04/05 06:02:58;;;;;;;23.70;7.00;;;10.30;99.90;;;;;;5014675;28;20094;-71
2022/04/05 06:05:24;;;;;;;21.55;5.47;;;10.30;99.90;;;;;;5012072;28;20381;-72
2022/04/05 06:07:50;;;;;;;25.70;7.22;;;10.30;99.90;;;;;;5018565;28;20041;-71
2022/04/05 06:10:17;;;;;;;23.70;7.03;;;10.30;99.90;;;;;;5018487;28;20029;-70
2022/04/05 06:12:45;;;;;;;19.70;6.07;;;10.40;99.90;;;;;;5011854;28;20064;-70
2022/04/05 06:15:13;;;;;;;20.10;6.20;;;10.40;99.90;;;;;;5021546;28;20037;-68
2022/04/05 06:17:44;;;;;;;25.33;6.50;;;10.40;99.90;;;;;;5028939;28;20474;-72
2022/04/05 06:20:11;;;;;;;18.55;5.78;;;10.50;99.90;;;;;;5013175;28;20472;-72
2022/04/05 06:22:48;;;;;;;19.23;5.78;;;10.50;99.90;;;;;;5012024;28;20109;-70
2022/04/05 06:25:16;;;;;;;19.55;4.97;;;10.50;99.90;;;;;;5011995;28;20022;-70
2022/04/05 06:27:42;;;;;;;13.38;4.43;;;10.60;99.90;;;;;;5012812;28;20490;-69
2022/04/05 06:30:09;;;;;;;20.10;5.72;;;10.60;99.90;;;;;;5012137;28;20217;-70
2022/04/05 06:32:35;;;;;;;17.25;5.53;;;10.60;99.90;;;;;;5013244;28;20028;-71
2022/04/05 06:35:02;;;;;;;20.48;6.18;;;10.70;99.90;;;;;;5013275;28;20030;-68
2022/04/05 06:37:28;;;;;;;16.33;4.85;;;10.70;99.90;;;;;;5011737;28;20034;-69
2022/04/05 06:39:54;;;;;;;20.50;5.57;;;10.60;99.90;;;;;;5012904;28;20033;-71
2022/04/05 06:42:20;;;;;;;18.23;5.43;;;10.70;99.90;;;;;;5011651;28;20079;-68
2022/04/05 06:44:45;;;;;;;16.30;5.07;;;10.70;99.90;;;;;;5012778;28;20406;-69
2022/04/05 06:47:11;;;;;;;21.65;5.00;;;10.70;99.90;;;;;;5013078;28;20026;-69
2022/04/05 06:49:37;;;;;;;15.93;4.28;;;10.70;99.90;;;;;;5012936;28;20022;-69
2022/04/05 06:52:04;;;;;;;19.98;4.57;;;10.70;99.90;;;;;;5012851;28;20061;-69
2022/04/05 06:54:29;;;;;;;20.35;4.50;;;10.80;99.90;;;;;;5013225;28;20076;-69
2022/04/05 06:56:55;;;;;;;17.23;4.30;;;10.80;99.90;;;;;;5019214;28;20041;-71
2022/04/05 06:59:20;;;;;;;16.98;4.50;;;10.80;99.90;;;;;;5019414;28;20037;-69
2022/04/05 07:01:46;;;;;;;18.83;4.30;;;10.90;99.90;;;;;;5018223;28;20038;-71
2022/04/05 07:04:11;;;;;;;20.77;5.93;;;10.90;99.90;;;;;;5019460;28;20037;-73
2022/04/05 07:06:37;;;;;;;17.80;4.32;;;11.00;99.90;;;;;;5019154;28;20418;-69
2022/04/05 07:09:05;;;;;;;22.08;4.65;;;11.00;99.90;;;;;;5017715;28;20030;-71
2022/04/05 07:11:31;;;;;;;17.75;4.35;;;11.10;99.90;;;;;;5019038;28;20088;-70
2022/04/05 07:13:57;;;;;;;14.93;3.85;;;11.10;99.90;;;;;;5018969;28;20049;-68
2022/04/05 07:16:22;;;;;;;17.90;3.90;;;11.20;99.90;;;;;;5019226;28;20057;-71
2022/04/05 07:18:49;;;;;;;15.27;3.97;;;11.30;99.90;;;;;;5019058;28;20121;-70
2022/04/05 07:21:15;;;;;;;19.25;4.55;;;11.30;99.90;;;;;;5017604;28;20057;-67
2022/04/05 07:23:41;;;;;;;16.30;4.03;;;11.40;99.90;;;;;;5019029;28;20026;-71
2022/04/05 07:26:07;;;;;;;16.40;3.97;;;11.40;99.90;;;;;;5019126;28;20078;-69
2022/04/05 07:28:33;;;;;;;14.52;3.95;;;11.60;99.90;;;;;;5019401;28;20029;-70
2022/04/05 07:30:58;;;;;;;20.70;3.75;;;11.60;99.90;;;;;;5019308;28;20022;-69
2022/04/05 07:33:24;;;;;;;15.38;3.55;;;11.60;99.90;;;;;;5019171;28;20030;-68
2022/04/05 07:35:50;;;;;;;11.20;3.92;;;11.70;99.90;;;;;;5018944;28;20157;-71
2022/04/05 07:38:17;;;;;;;15.80;3.85;;;11.80;99.90;;;;;;5018865;28;20034;-68
2022/04/05 07:40:49;;;;;;;11.50;3.53;;;11.80;99.90;;;;;;5018677;28;20033;-67
2022/04/05 07:43:19;;;;;;;18.58;4.10;;;11.90;99.90;;;;;;5018966;28;20083;-71
2022/04/05 07:45:48;;;;;;;19.63;4.28;;;12.00;99.90;;;;;;5018971;28;20029;-69
2022/04/05 07:48:14;;;;;;;17.05;4.30;;;12.00;99.90;;;;;;5018922;28;20032;-72
2022/04/05 07:50:40;;;;;;;17.42;4.32;;;12.10;99.90;;;;;;5018774;28;20033;-72
2022/04/05 07:53:05;;;;;;;11.95;3.47;;;12.00;99.90;;;;;;5018925;28;20029;-72
2022/04/05 07:55:31;;;;;;;19.77;4.70;;;12.00;99.90;;;;;;5018900;28;20026;-70
2022/04/05 07:57:57;;;;;;;15.57;4.35;;;11.90;99.90;;;;;;5017852;28;20053;-71
2022/04/05 08:00:23;;;;;;;16.75;4.70;;;11.80;99.90;;;;;;5019118;28;20441;-71
2022/04/05 08:02:50;;;;;;;15.05;4.30;;;11.70;99.90;;;;;;5018851;28;20033;-72
2022/04/05 08:05:16;;;;;;;14.98;4.15;;;11.70;99.90;;;;;;5018778;28;20122;-71
2022/04/05 08:07:42;;;;;;;16.80;4.90;;;11.70;99.90;;;;;;5016037;28;20108;-73
2022/04/05 08:10:08;;;;;;;15.35;4.93;;;11.70;99.90;;;;;;5015511;28;20049;-69
2022/04/05 08:12:42;;;;;;;18.77;5.80;;;11.80;99.90;;;;;;5015806;28;20029;-71
2022/04/05 08:15:09;;;;;;;16.77;4.35;;;11.80;99.90;;;;;;5014164;28;20774;-71
2022/04/05 08:17:35;;;;;;;17.08;4.40;;;11.90;99.90;;;;;;5015105;28;20530;-70
2022/04/05 08:20:01;;;;;;;16.02;4.30;;;12.00;99.90;;;;;;5015294;28;20076;-73
2022/04/05 08:22:26;;;;;;;14.95;4.18;;;12.10;99.90;;;;;;5015523;28;20042;-70
2022/04/05 08:24:52;;;;;;;18.88;4.72;;;12.30;99.90;;;;;;5015570;28;20053;-69
2022/04/05 08:27:17;;;;;;;14.18;4.05;;;12.40;99.90;;;;;;5015472;28;20046;-73
2022/04/05 08:29:43;;;;;;;10.40;4.20;;;12.40;99.90;;;;;;5015490;28;20033;-73
2022/04/05 08:32:08;;;;;;;18.77;4.38;;;12.50;99.90;;;;;;5015412;28;20038;-69
2022/04/05 08:34:35;;;;;;;16.25;5.07;;;12.50;99.90;;;;;;5015011;28;20025;-71
2022/04/05 08:37:01;;;;;;;17.67;6.32;;;12.40;99.90;;;;;;5014842;28;20026;-70
2022/04/05 08:39:28;;;;;;;15.48;4.75;;;12.40;99.90;;;;;;5015078;28;20529;-72
2022/04/05 08:41:56;;;;;;;17.08;4.70;;;12.30;99.90;;;;;;5015102;28;20072;-69
2022/04/05 08:44:23;;;;;;;16.45;5.32;;;12.30;99.90;;;;;;5015210;28;20140;-73
2022/04/05 08:46:51;;;;;;;18.23;6.00;;;12.30;99.90;;;;;;5014839;28;20494;-72
2022/04/05 08:49:18;;;;;;;20.90;6.65;;;12.30;99.90;;;;;;5014763;28;20042;-71
2022/04/05 08:51:44;;;;;;;15.57;4.80;;;12.30;99.90;;;;;;5014841;28;20026;-72
2022/04/05 08:54:09;;;;;;;16.63;5.22;;;12.50;99.90;;;;;;5014913;28;20037;-71
2022/04/05 08:56:35;;;;;;;21.60;5.68;;;12.50;99.90;;;;;;5015036;28;20474;-72
2022/04/05 08:59:00;;;;;;;15.75;5.50;;;12.50;99.90;;;;;;5014624;28;20555;-68
2022/04/05 09:01:29;;;;;;;18.70;5.30;;;12.50;99.90;;;;;;5014775;28;20034;-70
2022/04/05 09:03:58;;;;;;;16.42;4.72;;;12.50;99.90;;;;;;5014587;28;20108;-72
2022/04/05 09:06:35;;;;;;;20.15;5.38;;;12.40;99.90;;;;;;5014272;28;20060;-73
2022/04/05 09:09:18;;;;;;;14.65;4.47;;;12.40;99.90;;;;;;5014557;28;20022;-72
2022/04/05 09:11:54;;;;;;;17.83;5.00;;;12.40;99.90;;;;;;5013295;28;20466;-70
2022/04/05 09:14:24;;;;;;;16.27;4.40;;;12.50;99.90;;;;;;5014774;28;20484;-72
2022/04/05 09:17:03;;;;;;;12.55;4.43;;;12.50;99.90;;;;;;5013809;28;20153;-71
2022/04/05 09:19:42;;;;;;;15.00;5.40;;;12.70;99.90;;;;;;5013836;28;20034;-71
2022/04/05 09:22:07;;;;;;;18.45;6.13;;;12.80;99.90;;;;;;5014578;28;20021;-70
2022/04/05 09:24:34;;;;;;;17.02;5.25;;;12.90;99.90;;;;;;5014432;28;20057;-73
2022/04/05 09:27:00;;;;;;;16.80;4.63;;;13.00;99.90;;;;;;5014388;28;20045;-69
2022/04/05 09:29:39;;;;;;;18.02;4.80;;;13.00;99.90;;;;;;5014480;28;20040;-72
2022/04/05 09:32:05;;;;;;;17.17;5.25;;;12.90;99.90;;;;;;5012962;28;20036;-72
2022/04/05 09:34:30;;;;;;;15.13;5.03;;;12.80;99.90;;;;;;5014126;28;20034;-68
2022/04/05 09:36:56;;;;;;;19.13;5.60;;;12.80;99.90;;;;;;5012672;28;20022;-71
2022/04/05 09:39:23;;;;;;;15.18;4.80;;;12.90;99.90;;;;;;5013957;28;20443;-70
2022/04/05 09:42:03;;;;;;;18.45;6.20;;;12.90;99.90;;;;;;5013564;28;20433;-72
2022/04/05 09:44:32;;;;;;;14.27;4.28;;;13.00;99.90;;;;;;5014010;28;20126;-73
2022/04/05 09:47:10;;;;;;;17.10;4.78;;;13.00;99.90;;;;;;5013854;28;20057;-70
2022/04/05 09:49:41;;;;;;;20.52;5.78;;;13.10;99.90;;;;;;5013839;28;20018;-72
2022/04/05 09:52:32;;;;;;;11.07;4.18;;;13.20;99.90;;;;;;5013522;28;20419;-71
2022/04/05 09:55:12;;;;;;;12.80;4.18;;;13.10;99.90;;;;;;5013823;28;20033;-73
2022/04/05 09:57:38;;;;;;;18.88;5.25;;;13.10;99.90;;;;;;5013519;28;20421;-70
2022/04/05 10:00:09;;;;;;;17.75;4.22;;;13.00;99.90;;;;;;5013911;28;20033;-72
2022/04/05 10:02:35;;;;;;;17.45;4.18;;;13.00;99.90;;;;;;5013471;28;20034;-71
2022/04/05 10:05:10;;;;;;;17.83;5.07;;;13.00;99.90;;;;;;5013435;28;20029;-69
2022/04/05 10:07:37;;;;;;;17.00;4.53;;;13.00;99.90;;;;;;5013464;28;20029;-69
2022/04/05 10:10:06;;;;;;;12.57;3.72;;;13.10;99.90;;;;;;5013520;28;20034;-71
2022/04/05 10:12:32;;;;;;;18.73;4.18;;;13.10;99.90;;;;;;5013281;28;20057;-70
2022/04/05 10:15:00;;;;;;;13.15;4.18;;;13.10;99.90;;;;;;5013283;28;20119;-70
2022/04/05 10:17:27;;;;;;;16.38;5.15;;;13.00;99.90;;;;;;5012889;28;20042;-69
2022/04/05 10:19:54;;;;;;;18.67;6.00;;;12.90;99.90;;;;;;5013323;28;20034;-72
2022/04/05 10:22:22;;;;;;;15.32;4.45;;;13.00;99.90;;;;;;5013313;28;20497;-71
2022/04/05 10:24:52;;;;;;;15.40;4.53;;;13.30;99.90;;;;;;5013330;28;20558;-71
2022/04/05 10:27:18;;;;;;;16.85;4.38;;;13.60;99.90;;;;;;5012905;28;20054;-71
2022/04/05 10:29:45;;;;;;;13.70;3.92;;;14.10;99.90;;;;;;5012195;28;20053;-70
2022/04/05 10:32:41;;;;;;;11.75;4.00;;;14.30;99.90;;;;;;5013453;28;20506;-68
2022/04/05 10:35:08;;;;;;;17.23;4.45;;;14.40;99.90;;;;;;5012947;28;20022;-72
2022/04/05 10:37:41;;;;;;;13.23;3.95;;;14.50;99.90;;;;;;5012665;28;20482;-69
2022/04/05 10:40:09;;;;;;;15.77;4.20;;;14.50;99.90;;;;;;5012214;28;20030;-69
2022/04/05 10:42:39;;;;;;;13.70;4.20;;;14.50;99.90;;;;;;5024822;28;20030;-72
2022/04/05 10:45:10;;;;;;;18.77;4.40;;;14.40;99.90;;;;;;5017207;28;20152;-69
2022/04/05 10:48:13;;;;;;;19.83;5.00;;;14.20;99.90;;;;;;5013641;28;20045;-73
2022/04/05 10:50:41;;;;;;;17.58;5.00;;;14.10;99.90;;;;;;5032349;28;20034;-70
2022/04/05 10:53:22;;;;;;;16.17;4.05;;;14.00;99.90;;;;;;5032798;28;20034;-71
2022/04/05 10:56:11;;;;;;;13.05;3.67;;;14.10;99.90;;;;;;5032878;28;20109;-69
2022/04/05 10:58:55;;;;;;;14.88;4.20;;;14.20;99.90;;;;;;4993242;28;20053;-68
2022/04/05 11:01:22;;;;;;;17.35;4.35;;;14.30;99.90;;;;;;5008145;28;20552;-73
2022/04/05 11:04:24;;;;;;;13.90;4.03;;;14.30;99.90;;;;;;4992889;28;20037;-72
2022/04/05 11:06:58;;;;;;;18.00;4.15;;;14.30;99.90;;;;;;4990538;28;20033;-69
2022/04/05 11:09:33;;;;;;;17.55;4.43;;;14.20;99.90;;;;;;4992680;28;20096;-70
2022/04/05 11:12:02;;;;;;;17.75;5.10;;;14.10;99.90;;;;;;4993223;28;20030;-72
2022/04/05 11:14:35;;;;;;;14.40;4.95;;;14.10;99.90;;;;;;5014630;28;20035;-70
2022/04/05 11:17:05;;;;;;;12.73;4.03;;;14.00;99.90;;;;;;5030643;28;20051;-69
2022/04/05 11:19:36;;;;;;;17.33;4.63;;;14.00;99.90;;;;;;5032510;28;20064;-69
2022/04/05 11:22:24;;;;;;;21.85;5.03;;;14.00;99.90;;;;;;5031345;28;20042;-69
2022/04/05 11:24:54;;;;;;;16.73;4.45;;;14.10;99.90;;;;;;5032274;28;20430;-70
2022/04/05 11:27:35;;;;;;;21.13;4.97;;;14.20;99.90;;;;;;5032015;28;20110;-68
2022/04/05 11:30:22;;;;;;;18.63;5.45;;;14.40;99.90;;;;;;5032104;28;20022;-69
2022/04/05 11:33:27;;;;;;;18.42;4.75;;;14.60;99.90;;;;;;5032134;28;20029;-70
2022/04/05 11:35:57;;;;;;;10.48;3.85;;;14.60;99.90;;;;;;4993080;28;20064;-70
2022/04/05 11:38:25;;;;;;;17.27;4.30;;;14.80;99.90;;;;;;4992717;28;20500;-69
2022/04/05 11:40:54;;;;;;;16.92;4.60;;;15.00;99.90;;;;;;5007966;28;20061;-70
2022/04/05 11:43:27;;;;;;;14.70;4.15;;;15.20;99.90;;;;;;4996412;28;20121;-72
2022/04/05 11:45:56;;;;;;;16.83;4.50;;;15.30;99.90;;;;;;4996499;28;20018;-72
2022/04/05 11:48:23;;;;;;;16.25;4.28;;;15.40;99.90;;;;;;4996471;28;20467;-69
2022/04/05 11:50:49;;;;;;;16.10;4.35;;;15.40;99.90;;;;;;4996341;28;20069;-70
2022/04/05 11:53:18;;;;;;;11.38;3.88;;;15.40;99.90;;;;;;4996577;28;20026;-69
2022/04/05 11:56:02;;;;;;;15.05;4.30;;;15.50;99.90;;;;;;4996681;28;20027;-70
2022/04/05 11:58:30;;;;;;;17.48;4.50;;;15.50;99.90;;;;;;4996306;28;20048;-70
2022/04/05 12:00:57;;;;;;;13.07;4.13;;;15.50;99.90;;;;;;4996087;28;20030;-72
2022/04/05 12:03:23;;;;;;;15.07;4.18;;;15.60;99.90;;;;;;4995880;28;20045;-72
2022/04/05 12:05:49;;;;;;;16.23;4.55;;;15.60;99.90;;;;;;4996038;28;20030;-73
2022/04/05 12:08:16;;;;;;;13.73;4.20;;;15.70;99.90;;;;;;4996303;28;20033;-70
2022/04/05 12:10:43;;;;;;;13.02;4.03;;;15.70;99.90;;;;;;4995968;28;20026;-73
2022/04/05 12:13:09;;;;;;;14.45;3.92;;;15.90;99.90;;;;;;4996082;28;20026;-69
2022/04/05 12:15:36;;;;;;;14.32;4.07;;;16.10;99.90;;;;;;4996110;28;20034;-70
2022/04/05 12:18:19;;;;;;;16.15;4.47;;;16.10;99.90;;;;;;4995752;28;20041;-72
2022/04/05 12:21:03;;;;;;;;;;;15.90;99.90;;;;;;5011679;28;20026;-69
2022/04/05 12:23:41;;;;;;;15.00;3.85;;;15.80;99.90;;;;;;4996366;28;19919;-71
2022/04/05 12:26:20;;;;;;;13.48;4.00;;;15.50;99.90;;;;;;4995714;28;20070;-69
2022/04/05 12:28:49;;;;;;;14.35;4.15;;;15.30;99.90;;;;;;4995812;28;20026;-68
2022/04/05 12:31:20;;;;;;;17.45;4.50;;;15.10;99.90;;;;;;4995668;28;20030;-69
2022/04/05 12:33:58;;;;;;;16.75;3.83;;;15.00;99.90;;;;;;4995453;28;20109;-70
2022/04/05 12:36:45;;;;;;;13.27;4.28;;;15.00;99.90;;;;;;5010691;28;20121;-69
2022/04/05 12:39:20;;;;;;;13.82;4.50;;;15.00;99.90;;;;;;4997703;28;20054;-69
2022/04/05 12:41:48;;;;;;;16.20;4.00;;;14.80;99.90;;;;;;4995515;28;20386;-72
2022/04/05 12:44:15;;;;;;;12.82;3.90;;;14.70;99.90;;;;;;4995338;28;20164;-70
2022/04/05 12:46:53;;;;;;;16.92;4.43;;;14.70;99.90;;;;;;4995546;28;20481;-69
2022/04/05 12:49:32;;;;;;;12.23;4.03;;;14.80;99.90;;;;;;4995000;28;20018;-72
2022/04/05 12:52:09;;;;;;;14.18;4.65;;;15.00;99.90;;;;;;4995381;28;20035;-69
2022/04/05 12:54:38;;;;;;;16.92;4.47;;;15.20;99.90;;;;;;4994694;28;20030;-70
2022/04/05 12:57:33;;;;;;;15.60;4.35;;;15.10;99.90;;;;;;4995336;28;20038;-70